createdAt,value
2022-09-03T00:00:34.979Z,65.10
2022-09-03T00:03:07.362Z,65.20
2022-09-03T00:05:40.044Z,65.20
2022-09-03T00:08:13.373Z,65.20
2022-09-03T00:10:48.459Z,65.20
2022-09-03T00:13:20.911Z,65.20
2022-09-03T00:15:52.046Z,65.20
2022-09-03T00:18:23.484Z,65.40
2022-09-03T00:20:55.078Z,65.40
2022-09-03T00:23:25.895Z,65.40
2022-09-03T00:25:59.817Z,65.30
2022-09-03T00:28:33.733Z,65.70
2022-09-03T00:31:12.527Z,65.70
2022-09-03T00:33:44.054Z,65.80
2022-09-03T00:36:17.773Z,65.80
2022-09-03T00:38:46.159Z,65.90
2022-09-03T00:41:29.012Z,66.10
2022-09-03T00:44:14.934Z,66.10
2022-09-03T00:46:54.081Z,66.30
2022-09-03T00:49:35.327Z,66.40
2022-09-03T00:52:14.679Z,66.80
2022-09-03T00:54:50.286Z,67.00
2022-09-03T00:57:31.665Z,67.00
2022-09-03T01:00:06.809Z,67.10
2022-09-03T01:02:51.459Z,67.50
2022-09-03T01:05:33.510Z,67.80
2022-09-03T01:08:15.844Z,68.10
2022-09-03T01:10:54.923Z,68.10
2022-09-03T01:13:33.957Z,68.20
2022-09-03T01:16:14.397Z,68.70
2022-09-03T01:18:50.406Z,68.90
2022-09-03T01:21:39.587Z,69.00
2022-09-03T01:24:29.899Z,69.20
2022-09-03T01:27:11.023Z,69.10
2022-09-03T01:29:48.137Z,70.00
2022-09-03T01:32:27.886Z,69.80
2022-09-03T01:35:04.329Z,70.10
2022-09-03T01:37:40.421Z,70.80
2022-09-03T01:40:16.785Z,70.30
2022-09-03T01:42:55.493Z,70.30
2022-09-03T01:45:50.218Z,70.50
2022-09-03T01:48:31.050Z,70.90
2022-09-03T01:51:06.581Z,70.80
2022-09-03T01:53:52.197Z,70.80
2022-09-03T01:56:35.203Z,71.00
2022-09-03T01:59:08.747Z,71.00
2022-09-03T02:01:46.664Z,71.40
2022-09-03T02:04:20.104Z,71.50
2022-09-03T02:06:49.716Z,71.50
2022-09-03T02:09:17.812Z,71.70
2022-09-03T02:11:52.204Z,71.80
2022-09-03T02:14:20.698Z,72.00
2022-09-03T02:16:50.369Z,72.10
2022-09-03T02:19:19.766Z,72.10
2022-09-03T02:21:52.037Z,72.20
2022-09-03T02:24:20.521Z,72.60
2022-09-03T02:26:48.593Z,72.80
2022-09-03T02:29:17.953Z,72.80
2022-09-03T02:31:46.341Z,73.00
2022-09-03T02:34:16.083Z,73.20
2022-09-03T02:36:46.302Z,73.80
2022-09-03T02:39:15.394Z,73.30
2022-09-03T02:41:43.899Z,73.50
2022-09-03T02:44:17.228Z,73.50
2022-09-03T02:46:53.213Z,73.50
2022-09-03T02:49:22.617Z,73.50
2022-09-03T02:51:50.697Z,73.90
2022-09-03T02:54:21.055Z,74.00
2022-09-03T02:56:49.833Z,74.10
2022-09-03T02:59:18.307Z,74.40
2022-09-03T03:01:46.784Z,74.70
2022-09-03T03:04:15.507Z,74.70
2022-09-03T03:06:47.587Z,74.80
2022-09-03T03:09:15.975Z,74.80
2022-09-03T03:11:44.208Z,74.90
2022-09-03T03:14:12.324Z,75.10
2022-09-03T03:16:40.618Z,75.30
2022-09-03T03:19:08.651Z,75.30
2022-09-03T03:21:36.724Z,75.50
2022-09-03T03:24:07.092Z,75.80
2022-09-03T03:26:35.623Z,76.00
2022-09-03T03:29:05.679Z,75.90
2022-09-03T03:31:34.500Z,76.00
2022-09-03T03:34:04.793Z,76.00
2022-09-03T03:36:34.554Z,76.20
2022-09-03T03:39:03.255Z,76.80
2022-09-03T03:41:34.345Z,77.20
2022-09-03T03:44:03.716Z,77.10
2022-09-03T03:46:34.289Z,77.10
2022-09-03T03:49:02.696Z,77.20
2022-09-03T03:51:32.011Z,77.20
2022-09-03T03:54:03.225Z,77.30
2022-09-03T03:56:35.654Z,77.50
2022-09-03T03:59:04.713Z,77.50
2022-09-03T04:01:32.913Z,77.30
2022-09-03T04:04:01.632Z,77.50
2022-09-03T04:06:30.146Z,77.50
2022-09-03T04:08:58.375Z,77.50
2022-09-03T04:11:26.751Z,77.70
2022-09-03T04:13:56.213Z,77.70
2022-09-03T04:16:26.093Z,78.20
2022-09-03T04:18:54.920Z,78.50
2022-09-03T04:21:25.398Z,78.30
2022-09-03T04:23:56.509Z,78.30
2022-09-03T04:26:26.744Z,78.30
2022-09-03T04:28:56.797Z,78.50
2022-09-03T04:31:25.993Z,78.40
2022-09-03T04:33:54.886Z,78.40
2022-09-03T04:36:25.083Z,78.50
2022-09-03T04:38:55.170Z,78.30
2022-09-03T04:41:24.817Z,78.40
2022-09-03T04:43:53.770Z,78.00
2022-09-03T04:46:26.072Z,78.20
2022-09-03T04:48:57.955Z,78.20
2022-09-03T04:51:28.488Z,78.10
2022-09-03T04:53:58.198Z,78.10
2022-09-03T04:56:28.128Z,78.30
2022-09-03T04:58:57.541Z,78.40
2022-09-03T05:01:28.835Z,78.50
2022-09-03T05:03:57.966Z,78.60
2022-09-03T05:06:26.722Z,78.50
2022-09-03T05:08:56.043Z,78.60
2022-09-03T05:11:25.107Z,78.70
2022-09-03T05:13:54.859Z,78.80
2022-09-03T05:16:24.619Z,78.90
2022-09-03T05:18:55.849Z,79.20
2022-09-03T05:21:24.541Z,79.50
2022-09-03T05:23:53.297Z,79.20
2022-09-03T05:26:23.288Z,79.10
2022-09-03T05:28:55.335Z,78.90
2022-09-03T05:31:26.285Z,78.90
2022-09-03T05:33:58.922Z,78.80
2022-09-03T05:36:29.567Z,78.60
2022-09-03T05:38:58.893Z,78.60
2022-09-03T05:41:28.135Z,78.30
2022-09-03T05:43:59.356Z,78.60
2022-09-03T05:46:31.695Z,78.20
2022-09-03T05:49:02.527Z,77.80
2022-09-03T05:51:31.845Z,77.80
2022-09-03T05:54:00.162Z,78.00
2022-09-03T05:56:30.493Z,77.60
2022-09-03T05:59:01.736Z,77.50
2022-09-03T06:01:32.095Z,77.30
2022-09-03T06:04:02.893Z,77.20
2022-09-03T06:06:32.975Z,76.80
2022-09-03T06:09:03.357Z,76.90
2022-09-03T06:11:32.884Z,76.70
2022-09-03T06:14:02.965Z,76.30
2022-09-03T06:16:36.587Z,76.30
2022-09-03T06:19:07.197Z,76.00
2022-09-03T06:21:35.882Z,75.70
2022-09-03T06:24:04.494Z,75.90
2022-09-03T06:26:32.561Z,75.80
2022-09-03T06:29:00.629Z,75.80
2022-09-03T06:31:28.802Z,75.60
2022-09-03T06:34:02.035Z,75.70
2022-09-03T06:36:33.748Z,75.60
2022-09-03T06:39:02.124Z,75.70
2022-09-03T06:41:35.253Z,76.00
2022-09-03T06:44:05.563Z,75.90
2022-09-03T06:46:36.080Z,75.50
2022-09-03T06:49:04.789Z,75.40
2022-09-03T06:51:34.620Z,75.40
2022-09-03T06:54:05.723Z,75.40
2022-09-03T06:56:39.463Z,75.10
2022-09-03T06:59:09.713Z,75.00
2022-09-03T07:01:43.725Z,75.00
2022-09-03T07:04:13.698Z,75.20
2022-09-03T07:06:44.421Z,74.90
2022-09-03T07:09:14.902Z,75.00
2022-09-03T07:11:47.520Z,74.80
2022-09-03T07:14:17.857Z,74.60
2022-09-03T07:16:46.311Z,74.80
2022-09-03T07:19:14.915Z,74.60
2022-09-03T07:21:49.704Z,74.80
2022-09-03T07:24:19.581Z,74.30
2022-09-03T07:26:48.742Z,74.60
2022-09-03T07:29:20.029Z,74.50
2022-09-03T07:31:51.345Z,74.30
2022-09-03T07:34:20.353Z,74.30
2022-09-03T07:36:52.419Z,74.30
2022-09-03T07:39:21.020Z,74.40
2022-09-03T07:41:50.211Z,74.50
2022-09-03T07:44:20.268Z,74.50
2022-09-03T07:46:50.860Z,74.60
2022-09-03T07:49:20.274Z,74.60
2022-09-03T07:51:50.774Z,74.90
2022-09-03T07:54:21.550Z,74.30
2022-09-03T07:56:49.701Z,74.50
2022-09-03T07:59:18.119Z,74.30
2022-09-03T08:01:46.174Z,73.70
2022-09-03T08:04:14.383Z,73.40
2022-09-03T08:06:42.552Z,73.10
2022-09-03T08:09:13.531Z,73.10
2022-09-03T08:11:44.399Z,72.80
2022-09-03T08:14:14.835Z,73.00
2022-09-03T08:16:45.908Z,72.80
2022-09-03T08:19:14.891Z,72.90
2022-09-03T08:21:43.512Z,73.00
2022-09-03T08:24:12.874Z,73.20
2022-09-03T08:26:49.099Z,73.60
2022-09-03T08:29:19.787Z,73.90
2022-09-03T08:31:48.140Z,74.80
2022-09-03T08:34:17.694Z,74.10
2022-09-03T08:36:47.276Z,74.20
2022-09-03T08:39:15.527Z,74.20
2022-09-03T08:42:14.842Z,74.80
2022-09-03T08:44:47.928Z,75.30
2022-09-03T08:47:21.761Z,75.40
2022-09-03T08:49:55.681Z,75.90
2022-09-03T08:52:27.974Z,76.40
2022-09-03T08:55:03.581Z,76.90
2022-09-03T08:57:38.259Z,76.80
2022-09-03T09:00:08.057Z,76.80
2022-09-03T09:02:57.805Z,77.60
2022-09-03T09:05:50.834Z,78.40
2022-09-03T09:08:28.193Z,78.70
2022-09-03T09:11:02.905Z,78.80
2022-09-03T09:13:44.009Z,78.60
2022-09-03T09:16:20.193Z,78.90
2022-09-03T09:18:58.171Z,78.80
2022-09-03T09:21:31.032Z,79.30
2022-09-03T09:24:03.702Z,79.40
2022-09-03T09:26:33.164Z,80.10
2022-09-03T09:29:08.835Z,80.90
2022-09-03T09:31:39.856Z,81.60
2022-09-03T09:34:09.461Z,83.50
2022-09-03T09:36:43.732Z,85.00
2022-09-03T09:39:15.881Z,86.70
2022-09-03T09:41:44.931Z,89.10
2022-09-03T09:44:22.050Z,90.30
2022-09-03T09:46:54.774Z,91.30
2022-09-03T09:49:33.150Z,91.70
2022-09-03T09:52:09.043Z,92.40
2022-09-03T09:54:37.166Z,92.80
2022-09-03T09:57:06.638Z,93.50
2022-09-03T09:59:38.021Z,93.70
2022-09-03T10:02:13.835Z,93.70
2022-09-03T10:04:51.232Z,93.60
2022-09-03T10:07:26.249Z,93.60
2022-09-03T10:10:06.543Z,93.70
2022-09-03T10:12:40.445Z,94.70
2022-09-03T10:15:27.148Z,94.60
2022-09-03T10:18:03.099Z,94.00
2022-09-03T10:20:37.777Z,94.10
2022-09-03T10:23:17.482Z,93.40
2022-09-03T10:25:56.321Z,93.60
2022-09-03T10:28:28.311Z,93.20
2022-09-03T10:31:15.740Z,93.00
2022-09-03T10:33:49.180Z,92.60
2022-09-03T10:36:23.191Z,92.30
2022-09-03T10:39:00.088Z,92.70
2022-09-03T10:41:41.481Z,92.30
2022-09-03T10:44:46.404Z,92.00
2022-09-03T10:47:31.831Z,91.40
2022-09-03T10:50:04.863Z,90.80
2022-09-03T10:52:40.962Z,91.10
2022-09-03T10:55:20.366Z,90.80
2022-09-03T10:57:57.323Z,90.40
2022-09-03T11:00:26.226Z,90.10
2022-09-03T11:03:21.175Z,90.80
2022-09-03T11:06:00.127Z,90.30
2022-09-03T11:08:32.501Z,88.70
2022-09-03T11:11:09.744Z,88.90
2022-09-03T11:13:43.306Z,89.10
2022-09-03T11:16:19.558Z,89.10
2022-09-03T11:18:52.977Z,89.00
2022-09-03T11:21:25.932Z,87.90
2022-09-03T11:24:04.240Z,87.40
2022-09-03T11:26:35.303Z,87.30
2022-09-03T11:29:08.930Z,85.90
2022-09-03T11:31:50.722Z,86.80
2022-09-03T11:34:32.016Z,86.60
2022-09-03T11:37:18.614Z,86.30
2022-09-03T11:39:56.551Z,86.40
2022-09-03T11:42:35.130Z,86.90
2022-09-03T11:45:36.129Z,87.30
2022-09-03T11:48:17.476Z,87.60
2022-09-03T11:50:55.025Z,87.60
2022-09-03T11:53:28.188Z,87.10
2022-09-03T11:56:00.183Z,86.60
2022-09-03T11:58:32.991Z,87.10
2022-09-03T12:01:03.150Z,87.20
2022-09-03T12:03:43.114Z,87.60
2022-09-03T12:06:46.771Z,87.60
2022-09-03T12:09:46.410Z,87.10
2022-09-03T12:12:32.765Z,86.80
2022-09-03T12:15:10.776Z,85.90
2022-09-03T12:17:49.834Z,85.30
2022-09-03T12:20:23.545Z,84.60
2022-09-03T12:25:26.405Z,84.50
2022-09-03T12:27:54.747Z,84.40
2022-09-03T12:30:25.763Z,83.40
2022-09-03T12:33:05.584Z,83.50
2022-09-03T12:38:26.281Z,83.30
2022-09-03T12:43:51.925Z,82.60
2022-09-03T12:46:24.632Z,81.60
2022-09-03T12:52:04.594Z,81.20
2022-09-03T12:54:36.116Z,81.20
2022-09-03T12:57:05.665Z,80.80
2022-09-03T12:59:38.914Z,80.80
2022-09-03T13:02:17.034Z,80.40
2022-09-03T13:04:46.966Z,80.20
2022-09-03T13:07:22.671Z,80.50
2022-09-03T13:09:52.448Z,79.80
2022-09-03T13:12:31.994Z,79.80
2022-09-03T13:15:08.192Z,79.60
2022-09-03T13:18:05.111Z,79.70
2022-09-03T13:20:37.405Z,79.50
2022-09-03T13:23:24.779Z,79.80
2022-09-03T13:26:06.256Z,79.60
2022-09-03T13:28:46.695Z,79.10
2022-09-03T13:31:27.276Z,78.80
2022-09-03T13:34:01.052Z,78.50
2022-09-03T13:36:35.352Z,78.30
2022-09-03T13:39:06.993Z,78.30
2022-09-03T13:41:43.106Z,78.10
2022-09-03T13:44:15.917Z,77.80
2022-09-03T13:46:48.200Z,77.60
2022-09-03T13:49:46.077Z,77.50
2022-09-03T13:52:22.700Z,77.20
2022-09-03T13:54:56.320Z,76.20
2022-09-03T13:57:39.840Z,76.00
2022-09-03T14:00:11.915Z,76.60
2022-09-03T14:02:53.304Z,76.70
2022-09-03T14:05:34.906Z,76.20
2022-09-03T14:08:14.264Z,76.40
2022-09-03T14:10:57.047Z,76.10
2022-09-03T14:13:39.839Z,75.90
2022-09-03T14:16:15.317Z,75.60
2022-09-03T14:18:51.439Z,75.30
2022-09-03T14:21:24.686Z,75.20
2022-09-03T14:24:06.940Z,74.30
2022-09-03T14:26:39.967Z,74.00
2022-09-03T14:29:17.805Z,73.70
2022-09-03T14:32:10.205Z,73.10
2022-09-03T14:34:44.131Z,72.50
2022-09-03T14:37:26.552Z,73.50
2022-09-03T14:39:56.725Z,74.50
2022-09-03T14:42:46.705Z,75.10
2022-09-03T14:45:23.924Z,74.00
2022-09-03T14:48:11.837Z,71.30
2022-09-03T14:50:52.036Z,67.60
2022-09-03T14:53:38.160Z,65.30
2022-09-03T14:56:20.977Z,63.30
2022-09-03T14:59:05.136Z,61.90
2022-09-03T15:01:38.975Z,61.30
2022-09-03T15:04:33.979Z,60.20
2022-09-03T15:07:17.348Z,59.20
2022-09-03T15:09:52.672Z,58.40
2022-09-03T15:12:24.955Z,58.30
2022-09-03T15:14:56.926Z,57.90
2022-09-03T15:17:43.771Z,58.10
2022-09-03T15:20:23.747Z,58.00
2022-09-03T15:23:21.541Z,59.50
2022-09-03T15:26:19.822Z,61.20
2022-09-03T15:29:04.798Z,64.10
2022-09-03T15:31:46.280Z,66.20
2022-09-03T15:34:35.489Z,67.40
2022-09-03T15:37:13.105Z,68.40
2022-09-03T15:39:45.972Z,69.20
2022-09-03T15:42:23.735Z,70.10
2022-09-03T15:44:55.964Z,70.30
2022-09-03T15:47:50.534Z,70.80
2022-09-03T15:50:30.858Z,71.30
2022-09-03T15:53:06.023Z,71.50
2022-09-03T15:55:38.884Z,72.40
2022-09-03T15:58:16.690Z,72.90
2022-09-03T16:00:57.167Z,73.00
2022-09-03T16:03:45.223Z,73.60
2022-09-03T16:06:26.345Z,74.20
2022-09-03T16:08:58.781Z,74.80
2022-09-03T16:11:37.194Z,75.20
2022-09-03T16:14:11.161Z,75.50
2022-09-03T16:17:03.769Z,75.70
2022-09-03T16:19:39.104Z,76.20
2022-09-03T16:22:15.466Z,76.50
2022-09-03T16:24:49.758Z,76.80
2022-09-03T16:27:22.825Z,77.00
2022-09-03T16:30:03.643Z,76.50
2022-09-03T16:32:59.094Z,76.60
2022-09-03T16:35:38.690Z,77.50
2022-09-03T16:38:20.712Z,78.20
2022-09-03T16:40:55.211Z,79.10
2022-09-03T16:43:40.637Z,80.00
2022-09-03T16:46:26.710Z,81.20
2022-09-03T16:49:23.270Z,82.90
2022-09-03T16:51:57.148Z,83.80
2022-09-03T16:54:44.283Z,85.20
2022-09-03T16:57:31.210Z,87.30
2022-09-03T17:00:10.139Z,88.40
2022-09-03T17:03:26.672Z,89.30
2022-09-03T17:06:28.631Z,89.90
2022-09-03T17:09:04.240Z,90.30
2022-09-03T17:11:47.398Z,90.30
2022-09-03T17:14:51.362Z,89.80
2022-09-03T17:17:33.563Z,89.70
2022-09-03T17:20:10.244Z,90.20
2022-09-03T17:22:51.766Z,90.30
2022-09-03T17:25:30.815Z,90.80
2022-09-03T17:28:24.764Z,91.10
2022-09-03T17:30:58.683Z,91.50
2022-09-03T17:33:54.308Z,92.00
2022-09-03T17:36:27.270Z,92.70
2022-09-03T17:39:43.749Z,93.60
2022-09-03T17:42:20.391Z,94.40
2022-09-03T17:45:04.133Z,94.40
2022-09-03T17:47:56.650Z,95.10
2022-09-03T17:50:26.617Z,96.40
2022-09-03T17:52:58.401Z,96.90
2022-09-03T17:55:33.878Z,97.40
2022-09-03T17:58:17.908Z,98.00
2022-09-03T18:00:56.472Z,98.60
2022-09-03T18:03:30.169Z,99.10
2022-09-03T18:06:01.886Z,99.60
2022-09-03T18:08:41.685Z,99.70
2022-09-03T18:11:12.800Z,99.90
2022-09-03T18:13:51.509Z,99.90
2022-09-03T18:16:27.788Z,99.90
2022-09-03T18:19:03.767Z,99.90
2022-09-03T18:21:56.258Z,99.90
2022-09-03T18:24:51.025Z,99.90
2022-09-03T18:27:41.018Z,99.90
2022-09-03T18:30:28.389Z,99.90
2022-09-03T18:33:15.567Z,99.90
2022-09-03T18:36:02.955Z,99.90
2022-09-03T18:38:50.865Z,99.90
2022-09-03T18:42:06.718Z,99.90
2022-09-03T18:45:21.636Z,99.90
2022-09-03T18:48:22.594Z,99.90
2022-09-03T18:51:15.845Z,99.90
2022-09-03T18:54:09.150Z,99.90
2022-09-03T18:56:59.923Z,99.90
2022-09-03T19:00:03.774Z,99.90
2022-09-03T19:03:03.175Z,99.90
2022-09-03T19:05:56.714Z,99.90
2022-09-03T19:08:46.646Z,99.90
2022-09-03T19:11:50.136Z,99.90
2022-09-03T19:14:46.990Z,99.90
2022-09-03T19:17:42.589Z,99.90
2022-09-03T19:20:32.955Z,99.90
2022-09-03T19:23:22.232Z,99.90
2022-09-03T19:26:08.687Z,99.90
2022-09-03T19:29:02.615Z,99.90
2022-09-03T19:31:59.903Z,99.90
2022-09-03T19:35:14.291Z,99.90
2022-09-03T19:38:08.686Z,99.90
2022-09-03T19:41:17.983Z,99.90
2022-09-03T19:44:14.490Z,99.90
2022-09-03T19:47:06.110Z,99.90
2022-09-03T19:50:06.075Z,99.90
2022-09-03T19:53:01.483Z,99.90
2022-09-03T19:55:53.050Z,99.90
2022-09-03T19:58:44.308Z,99.90
2022-09-03T20:01:31.441Z,99.90
2022-09-03T20:04:22.528Z,99.90
2022-09-03T20:07:07.877Z,99.90
2022-09-03T20:09:57.904Z,99.90
2022-09-03T20:12:30.905Z,99.90
2022-09-03T20:15:00.368Z,99.90
2022-09-03T20:17:36.089Z,99.90
2022-09-03T20:20:17.443Z,99.90
2022-09-03T20:22:53.954Z,99.90
2022-09-03T20:25:42.715Z,99.90
2022-09-03T20:28:20.026Z,99.90
2022-09-03T20:30:57.631Z,99.90
2022-09-03T20:33:50.778Z,99.90
2022-09-03T20:36:28.470Z,99.90
2022-09-03T20:39:14.945Z,99.90
2022-09-03T20:41:50.393Z,99.90
2022-09-03T20:44:45.057Z,99.90
2022-09-03T20:47:41.865Z,99.90
2022-09-03T20:50:22.250Z,99.90
2022-09-03T20:53:02.098Z,99.90
2022-09-03T20:55:34.747Z,99.90
2022-09-03T20:58:10.840Z,99.90
2022-09-03T21:00:50.983Z,99.90
2022-09-03T21:03:25.645Z,99.90
2022-09-03T21:06:05.139Z,99.90
2022-09-03T21:09:00.950Z,99.90
2022-09-03T21:11:38.973Z,99.90
2022-09-03T21:14:20.031Z,99.90
2022-09-03T21:17:00.142Z,99.90
2022-09-03T21:19:44.055Z,99.90
2022-09-03T21:22:23.866Z,99.90
2022-09-03T21:24:56.949Z,99.90
2022-09-03T21:27:30.884Z,99.90
2022-09-03T21:30:03.661Z,99.90
2022-09-03T21:32:38.763Z,99.90
2022-09-03T21:35:17.102Z,99.90
2022-09-03T21:37:53.369Z,99.90
2022-09-03T21:40:24.523Z,99.90
2022-09-03T21:42:59.766Z,99.90
2022-09-03T21:45:33.208Z,99.90
2022-09-03T21:48:05.726Z,99.90
2022-09-03T21:50:48.743Z,99.90
2022-09-03T21:53:23.061Z,99.90
2022-09-03T21:56:14.674Z,99.90
2022-09-03T21:58:59.094Z,99.90
2022-09-03T22:01:38.699Z,99.90
2022-09-03T22:04:06.882Z,99.90
2022-09-03T22:06:40.183Z,99.90
2022-09-03T22:09:13.086Z,99.90
2022-09-03T22:11:46.655Z,99.90
2022-09-03T22:14:16.798Z,99.90
2022-09-03T22:16:48.704Z,99.90
2022-09-03T22:19:17.050Z,99.90
2022-09-03T22:21:55.272Z,99.90
2022-09-03T22:24:38.506Z,99.90
2022-09-03T22:27:19.225Z,99.90
2022-09-03T22:29:54.166Z,99.90
2022-09-03T22:32:36.218Z,99.90
2022-09-03T22:35:21.044Z,99.90
2022-09-03T22:38:11.773Z,99.90
2022-09-03T22:40:45.873Z,99.90
2022-09-03T22:43:36.102Z,99.90
2022-09-03T22:46:08.236Z,99.90
2022-09-03T22:49:07.447Z,99.90
2022-09-03T22:51:55.916Z,99.90
2022-09-03T22:54:39.266Z,99.90
2022-09-03T22:57:08.997Z,99.90
2022-09-03T22:59:42.213Z,99.90
2022-09-03T23:02:15.059Z,99.90
2022-09-03T23:04:51.789Z,99.90
2022-09-03T23:07:25.179Z,99.90
2022-09-03T23:09:59.397Z,99.90
2022-09-03T23:12:36.525Z,99.90
2022-09-03T23:15:11.316Z,99.90
2022-09-03T23:17:44.724Z,99.90
2022-09-03T23:20:17.884Z,99.90
2022-09-03T23:22:54.529Z,99.90
2022-09-03T23:25:29.783Z,99.90
2022-09-03T23:28:02.349Z,99.90
2022-09-03T23:30:31.463Z,99.90
2022-09-03T23:33:01.254Z,99.90
2022-09-03T23:35:31.493Z,99.90
2022-09-03T23:38:13.919Z,99.90
2022-09-03T23:40:47.411Z,99.90
2022-09-03T23:44:01.598Z,99.90
2022-09-03T23:46:36.758Z,99.90
2022-09-03T23:49:35.084Z,99.90
2022-09-03T23:52:37.295Z,99.90
2022-09-03T23:55:19.954Z,99.90
2022-09-03T23:58:00.613Z,99.90
